This is the latest recevied weather packets stored in our database for station/object N3SBK. If no packets are shown the sender has not sent any weather packets the latest 10 day(s).
| Time | Temp. | Humidity | Pressure | Rain* | Wind** | Luminosity | Snow |
|---|---|---|---|---|---|---|---|
| 1787605192 | 20.56° C | 62% | 1008.4 hPa | 0 mm | - | 85 W/m² | - |
| 1787604891 | 20° C | 60% | 1008.3 hPa | 0 mm | - | 407 W/m² | - |
| 1787604587 | 20.56° C | 60% | 1008.4 hPa | 0 mm | - | 67 W/m² | - |
| 1787604286 | 20.56° C | 60% | 1008.4 hPa | 0 mm | - | 84 W/m² | - |
| 1787603981 | 21.11° C | 59% | 1008.2 hPa | 0 mm | - | 443 W/m² | - |
| 1787603681 | 21.67° C | 57% | 1008.3 hPa | 0 mm | - | 174 W/m² | - |
| 1787603376 | 22.78° C | 55% | 1008.1 hPa | 0 mm | - | 135 W/m² | - |
| 1787603072 | 22.78° C | 58% | 1008.3 hPa | 0 mm | - | 474 W/m² | - |
| 1787602769 | 22.22° C | 55% | 1008.2 hPa | 0 mm | - | 474 W/m² | - |
| 1787602468 | 22.22° C | 57% | 1008.4 hPa | 0 mm | - | 465 W/m² | - |
| 1787602163 | 21.67° C | 57% | 1008.3 hPa | 0 mm | - | 475 W/m² | - |
| 1787601862 | 21.67° C | 58% | 1008.3 hPa | 0 mm | - | 514 W/m² | - |
| 1787601558 | 22.22° C | 57% | 1008.3 hPa | 0 mm | - | 567 W/m² | - |
| 1787601253 | 22.22° C | 56% | 1008.3 hPa | 0 mm | - | 505 W/m² | - |
| 1787600951 | 22.22° C | 55% | 1008.4 hPa | 0 mm | - | 415 W/m² | - |
| 1787600647 | 21.11° C | 59% | 1008.3 hPa | 0 mm | - | 561 W/m² | - |
| 1787600342 | 21.11° C | 58% | 1008.3 hPa | 0 mm | - | 194 W/m² | - |
| 1787600038 | 21.11° C | 60% | 1008.3 hPa | 0 mm | - | 598 W/m² | - |
| 1787599734 | 21.11° C | 58% | 1008.1 hPa | 0 mm | - | 197 W/m² | - |
| 1787599430 | 21.11° C | 57% | 1008.4 hPa | 0 mm | - | 120 W/m² | - |
| 1787599127 | 21.11° C | 58% | 1008.3 hPa | 0 mm | - | 668 W/m² | - |
| 1787598822 | 21.67° C | 56% | 1008.1 hPa | 0 mm | - | 197 W/m² | - |
| 1787598518 | 21.11° C | 57% | 1008.4 hPa | 0 mm | - | 123 W/m² | - |
| 1787598212 | 20.56° C | 59% | 1008.5 hPa | 0 mm | - | 672 W/m² | - |
| 1787597908 | 20.56° C | 60% | 1008.2 hPa | 0 mm | - | 679 W/m² | - |
* Rain latest hour (hover to see other rain measurements)
** Current wind speed in m/s (hover to see current wind gust speed)